Startpagina
METAR-TAF:

METAR-TAF

Vliegvelden :

Chimoio, Mozambique

breedte: 19-07S, lengte: 033-28E, hoogte: 731 m

Actueel weer

Dit bericht is 1 uur en het 43 minuten geleden gemaakt, om 03:00 UTC
Temperatuur 21°C
Vochtigheid 100%
Druk 1014 hPa
Zicht 10 km of meer
Gebroken wolken op 2000 ft
Weinig wolken op 2500 ft, Cumulonimbus.

METAR: FQCH 090300Z /////KT 9999 BKN020 FEW025CB 21/21 Q1014 RMK CB TO N/S

Tijdstip: 06:43 (04:43 UTC)

Verwachting

Dit bericht is 6 uur en het 43 minuten geleden gemaakt, om 22:00 UTC
Verwachting geldig van 09 om 00 UTC tot 09 om 24 UTC
Wind 10 kt uit het zuidwesten
Zicht 10 km of meer
Gebroken wolken op 1700 ft
Weinig wolken op 3000 ft, Cumulonimbus.
Wijzigt naar
van 09 om 00 UTC tot 09 om 02 UTC
Wind 2 kt uit variabele richting
Wijzigt naar
van 09 om 12 UTC tot 09 om 14 UTC
Wind 10 kt uit het oosten

TAF: FQCH 082200Z 0900/0924 22010KT 9999 BKN017 FEW030CB TX31/0913Z TN18/0903Z BECMG 0900/0902 VRB02KT BECMG 0912/0914 09010KT

Waarnemingen en weersverwachtingen van meer dan 4000 vliegvelden (METAR en TAF).

De beschikbare stations zijn de gele en rode punten op de kaart.

Ga met uw muis naar het station om de naam te zien.

Klik dan om waarnemingen en weersverwachtingen te zien.

kaart wijzigen: klik op de groene knoppen met een zwart kruis om in te zoomen, op de groene knop met een streepje om uit te zoomen of op de groene pijlen voor aangrenzende kaarten.


METAR-TAF: